Tug "trevor" — WCP6921 — position and weather

sailwx.info

Track history (hours):
 
Tides and Currents Weather Stations Pressure Air Temp Water Temp Dewpoint Dewpoint Depression Visibility Wind Speed Wind Dir Waves Ship Positions

Tug "trevor"

Owner: WEEKS MARINE, INC., CRANFORD, NJ. More information available from US FCC via Universal Licensing System and Coast Guard Vessel Documentation Center.

Last reported at 2016-May-24 00:09 UTC. Time now 2016-May-24 13:48 UTC.
Position N 40°29' W 073°60'.

Length 21 m; draft 3 m.

Type: Towing. MMSI: 366643140.

Date/timePositionNaut miles runAvg speedWind from/ knotsBaromVisibWave heightAir tempDewpointWater temp
2016-May-24 00:09N 40°29' W 073°60'1 0.1
2016-May-23 18:26N 40°29' W 074°00'0 0.0
2016-May-23 14:32N 40°29' W 074°00'2 0.1
2016-May-22 14:23N 40°29' W 074°03'7 8.9
2016-May-22 13:33N 40°37' W 074°03'4 2.0
2016-May-22 11:33N 40°39' W 074°07'1 0.2
2016-May-22 07:04N 40°39' W 074°07'3 6.1
2016-May-22 06:33N 40°37' W 074°03'9 0.5
2016-May-21 14:13N 40°29' W 073°60'0 0.0
2016-May-21 02:23N 40°29' W 073°60'0 0.0
2016-May-20 19:17N 40°29' W 073°60'0 0.0
2016-May-20 10:25N 40°29' W 073°60'0 0.0
2016-May-19 16:21N 40°29' W 073°60'1 0.2
2016-May-19 13:10N 40°29' W 074°01'0 0.0
2016-May-19 12:11N 40°29' W 074°01'1 0.1
2016-May-18 11:31N 40°29' W 073°59'1 0.3
2016-May-18 06:33N 40°29' W 074°01'0 0.0
2016-May-18 03:31N 40°29' W 074°01'0 0.0
2016-May-17 10:33N 40°29' W 074°01'1 0.7
2016-May-17 09:23N 40°29' W 073°60'  
2016-May-14 18:27N 40°29' W 074°01'1 0.3
2016-May-14 15:29N 40°29' W 073°60'2 1.8
2016-May-14 14:13N 40°28' W 074°03'1 1.7
2016-May-14 13:20N 40°29' W 074°01'0 0.1
2016-May-14 12:33N 40°29' W 074°01'1 0.7
2016-May-14 11:19N 40°29' W 073°60'1 1.2
2016-May-14 10:33N 40°29' W 074°01'0 0.0
2016-May-14 08:17N 40°29' W 074°01'0 0.0
2016-May-14 06:32N 40°29' W 074°01'1 0.4
2016-May-14 04:25N 40°29' W 073°60'1 1.0
2016-May-14 03:33N 40°29' W 074°01'0 0.0
2016-May-14 02:23N 40°29' W 074°01'0 0.0
2016-May-14 00:33N 40°29' W 074°01'  
Track history (hours):
 
Tides and Currents Weather Stations Pressure Air Temp Water Temp Dewpoint Dewpoint Depression Visibility Wind Speed Wind Dir Waves Ship Positions

Tug "trevor"

Owner: WEEKS MARINE, INC., CRANFORD, NJ. More information available from US FCC via Universal Licensing System and Coast Guard Vessel Documentation Center.

Last reported at 2016-May-24 00:09 UTC. Time now 2016-May-24 13:48 UTC.
Position N 40°29' W 073°60'.

Length 21 m; draft 3 m.

Type: Towing. MMSI: 366643140.

Date/timePositionNaut miles runAvg speedWind from/ knotsBaromVisibWave heightAir tempDewpointWater temp
2016-May-24 00:09N 40°29' W 073°60'1 0.1
2016-May-23 18:26N 40°29' W 074°00'0 0.0
2016-May-23 14:32N 40°29' W 074°00'2 0.1
2016-May-22 14:23N 40°29' W 074°03'7 8.9
2016-May-22 13:33N 40°37' W 074°03'4 2.0
2016-May-22 11:33N 40°39' W 074°07'1 0.2
2016-May-22 07:04N 40°39' W 074°07'3 6.1
2016-May-22 06:33N 40°37' W 074°03'9 0.5
2016-May-21 14:13N 40°29' W 073°60'0 0.0
2016-May-21 02:23N 40°29' W 073°60'0 0.0
2016-May-20 19:17N 40°29' W 073°60'0 0.0
2016-May-20 10:25N 40°29' W 073°60'0 0.0
2016-May-19 16:21N 40°29' W 073°60'1 0.2
2016-May-19 13:10N 40°29' W 074°01'0 0.0
2016-May-19 12:11N 40°29' W 074°01'1 0.1
2016-May-18 11:31N 40°29' W 073°59'1 0.3
2016-May-18 06:33N 40°29' W 074°01'0 0.0
2016-May-18 03:31N 40°29' W 074°01'0 0.0
2016-May-17 10:33N 40°29' W 074°01'1 0.7
2016-May-17 09:23N 40°29' W 073°60'  
2016-May-14 18:27N 40°29' W 074°01'1 0.3
2016-May-14 15:29N 40°29' W 073°60'2 1.8
2016-May-14 14:13N 40°28' W 074°03'1 1.7
2016-May-14 13:20N 40°29' W 074°01'0 0.1
2016-May-14 12:33N 40°29' W 074°01'1 0.7
2016-May-14 11:19N 40°29' W 073°60'1 1.2
2016-May-14 10:33N 40°29' W 074°01'0 0.0
2016-May-14 08:17N 40°29' W 074°01'0 0.0
2016-May-14 06:32N 40°29' W 074°01'1 0.4
2016-May-14 04:25N 40°29' W 073°60'1 1.0
2016-May-14 03:33N 40°29' W 074°01'0 0.0
2016-May-14 02:23N 40°29' W 074°01'0 0.0
2016-May-14 00:33N 40°29' W 074°01'  

Dump ship's entire track history